Time;durP1;ratioP1;P1;durP2;ratioP2;P2;SDS_P1;SDS_P2;PMS_P1;PMS_P2;Temp;Humidity;BMP_temperature;BMP_pressure;BME280_temperature;BME280_humidity;BME280_pressure;Samples;Min_cycle;Max_cycle;Signal;HPM_P1;HPM_P2
2024/02/09 00:01:19;;;;;;;10.23;9.30;;;;;;;8.03;100.00;94347.91;5072487;28;20023;-67
2024/02/09 00:03:45;;;;;;;10.95;9.02;;;;;;;8.01;100.00;94346.47;5065983;28;20016;-67
2024/02/09 00:06:11;;;;;;;11.48;9.05;;;;;;;8.19;100.00;94327.97;5065592;28;20028;-67
2024/02/09 00:08:37;;;;;;;10.98;9.35;;;;;;;8.15;100.00;94339.78;5075456;28;20049;-67
2024/02/09 00:11:04;;;;;;;10.80;9.82;;;;;;;8.08;100.00;94349.28;5072965;28;20096;-67
2024/02/09 00:13:30;;;;;;;11.65;8.90;;;;;;;8.12;100.00;94358.44;5061868;28;20029;-67
2024/02/09 00:15:55;;;;;;;10.77;8.10;;;;;;;8.42;100.00;94335.22;5067229;28;20024;-67
2024/02/09 00:18:22;;;;;;;8.45;7.65;;;;;;;8.38;100.00;94341.78;5069112;28;20028;-67
2024/02/09 00:20:50;;;;;;;8.00;6.35;;;;;;;8.36;100.00;94359.50;5068233;28;20067;-67
2024/02/09 00:23:18;;;;;;;6.07;5.47;;;;;;;8.66;100.00;94336.25;5076276;28;20405;-67
2024/02/09 00:25:44;;;;;;;7.28;6.43;;;;;;;8.80;100.00;94350.53;5064025;28;20016;-67
2024/02/09 00:28:11;;;;;;;7.28;6.55;;;;;;;8.61;100.00;94347.25;5071425;28;20556;-68
2024/02/09 00:30:38;;;;;;;7.43;6.72;;;;;;;8.54;100.00;94348.88;5073937;28;20021;-68
2024/02/09 00:33:09;;;;;;;36.60;28.67;;;;;;;8.37;100.00;94351.44;5072264;28;20037;-68
2024/02/09 00:35:36;;;;;;;14.23;9.73;;;;;;;8.26;100.00;94355.19;5066018;28;20518;-68
2024/02/09 00:38:04;;;;;;;10.63;8.30;;;;;;;8.31;100.00;94352.09;5065741;28;20028;-68
2024/02/09 00:40:31;;;;;;;12.57;10.35;;;;;;;8.17;100.00;94366.66;5070174;28;20074;-68
2024/02/09 00:42:56;;;;;;;35.63;28.77;;;;;;;8.17;100.00;94361.41;5072502;28;20105;-67
2024/02/09 00:45:23;;;;;;;33.20;27.40;;;;;;;8.18;100.00;94370.91;5064068;28;20111;-68
2024/02/09 00:47:49;;;;;;;10.63;9.52;;;;;;;8.19;100.00;94367.31;5067803;28;20039;-68
2024/02/09 00:50:18;;;;;;;9.65;8.65;;;;;;;8.11;100.00;94377.78;5070278;28;20021;-68
2024/02/09 00:52:54;;;;;;;14.13;11.07;;;;;;;8.02;100.00;94369.88;5062929;28;20076;-68
2024/02/09 00:55:19;;;;;;;17.63;15.07;;;;;;;8.02;100.00;94379.56;5066709;28;20051;-68
2024/02/09 00:57:45;;;;;;;14.85;13.25;;;;;;;8.15;100.00;94366.00;5064070;28;20025;-67
2024/02/09 01:00:12;;;;;;;18.55;13.38;;;;;;;8.06;100.00;94361.69;5072898;28;20024;-68
2024/02/09 01:02:38;;;;;;;14.90;10.07;;;;;;;8.06;100.00;94370.38;5062789;28;20067;-68
2024/02/09 01:05:04;;;;;;;20.08;16.13;;;;;;;8.06;100.00;94380.03;5059819;28;20060;-68
2024/02/09 01:07:29;;;;;;;14.77;11.98;;;;;;;8.16;100.00;94378.13;5066894;28;20069;-68
2024/02/09 01:09:58;;;;;;;29.63;23.20;;;;;;;8.07;100.00;94381.69;5075588;28;20043;-68
2024/02/09 02:45:16;;;;;;;9.15;8.25;;;;;;;8.07;100.00;94393.00;5062097;28;20455;-67
2024/02/09 03:04:17;;;;;;;12.73;9.18;;;;;;;7.90;100.00;94381.63;5066312;28;20111;-67
2024/02/09 03:04:22;;;;;;;10.70;9.32;;;;;;;7.69;100.00;94366.28;5063995;28;20043;-67
2024/02/09 03:06:47;;;;;;;11.45;9.25;;;;;;;7.58;100.00;94365.59;5079839;28;20111;-69
2024/02/09 03:09:13;;;;;;;15.43;10.98;;;;;;;7.54;100.00;94353.81;5078237;28;20059;-69
2024/02/09 03:11:38;;;;;;;16.80;13.93;;;;;;;7.55;100.00;94352.00;5071250;28;20020;-69
2024/02/09 03:14:05;;;;;;;108.50;76.75;;;;;;;7.55;100.00;94352.00;5068791;28;20024;-69
2024/02/09 03:16:31;;;;;;;12.32;9.60;;;;;;;7.69;100.00;94350.56;5062722;28;20016;-68
2024/02/09 03:18:56;;;;;;;15.65;8.82;;;;;;;7.64;100.00;94348.44;5069880;28;20029;-68
2024/02/09 03:21:25;;;;;;;11.02;8.50;;;;;;;7.59;100.00;94345.47;5076345;28;20032;-68
2024/02/09 03:23:53;;;;;;;10.07;9.15;;;;;;;7.58;100.00;94343.81;5071426;28;20025;-68
2024/02/09 03:26:22;;;;;;;10.30;9.18;;;;;;;7.55;100.00;94357.22;5067748;28;20021;-68
2024/02/09 03:28:49;;;;;;;10.38;9.23;;;;;;;7.63;100.00;94348.59;5074724;28;20489;-68
2024/02/09 03:31:15;;;;;;;29.08;26.15;;;;;;;7.53;100.00;94349.53;5073849;28;20047;-68
2024/02/09 03:33:42;;;;;;;12.88;11.02;;;;;;;7.55;100.00;94346.75;5078968;28;20020;-68
2024/02/09 03:36:08;;;;;;;20.33;18.00;;;;;;;7.54;100.00;94334.63;5064227;28;20028;-68
2024/02/09 03:38:35;;;;;;;12.85;11.13;;;;;;;7.48;100.00;94348.38;5067684;28;20017;-68
2024/02/09 03:41:01;;;;;;;15.88;10.60;;;;;;;7.43;100.00;94344.41;5071826;28;20029;-68
2024/02/09 03:43:26;;;;;;;10.88;8.50;;;;;;;7.42;100.00;94336.72;5074602;28;20041;-68
2024/02/09 03:45:51;;;;;;;10.50;9.18;;;;;;;7.42;100.00;94327.06;5075586;28;20020;-68
2024/02/09 03:48:17;;;;;;;14.57;13.10;;;;;;;7.42;100.00;94328.84;5068847;28;20037;-68
2024/02/09 03:50:42;;;;;;;15.75;13.18;;;;;;;7.43;100.00;94328.72;5074177;28;20475;-69
2024/02/09 03:53:12;;;;;;;18.48;15.02;;;;;;;7.49;100.00;94315.97;5072869;28;20070;-68
2024/02/09 03:55:39;;;;;;;15.43;13.38;;;;;;;7.43;100.00;94320.84;5078890;28;20031;-69
2024/02/09 03:58:06;;;;;;;9.82;7.78;;;;;;;7.56;100.00;94309.09;5071007;28;20032;-68
2024/02/09 04:00:32;;;;;;;8.02;5.78;;;;;;;7.60;100.00;94306.03;5068484;28;20119;-68
2024/02/09 04:02:57;;;;;;;10.18;6.45;;;;;;;7.49;100.00;94301.06;5071001;28;20490;-68
2024/02/09 04:05:22;;;;;;;14.15;12.75;;;;;;;7.44;100.00;94305.94;5068678;28;20040;-68
2024/02/09 04:07:50;;;;;;;10.50;8.25;;;;;;;7.45;100.00;94303.19;5068653;28;20401;-68
2024/02/09 04:10:16;;;;;;;15.70;13.57;;;;;;;7.40;100.00;94312.47;5077493;28;20456;-68
2024/02/09 04:12:42;;;;;;;13.05;10.30;;;;;;;7.37;100.00;94300.50;5073305;28;20140;-68
2024/02/09 04:15:11;;;;;;;12.50;10.50;;;;;;;7.40;100.00;94308.03;5072980;28;20036;-68
2024/02/09 04:17:37;;;;;;;10.88;8.68;;;;;;;7.34;100.00;94290.34;5064293;28;20064;-68
2024/02/09 04:20:02;;;;;;;10.82;8.73;;;;;;;7.33;100.00;94295.75;5063181;28;20482;-68
2024/02/09 04:22:27;;;;;;;12.45;9.75;;;;;;;7.31;100.00;94301.13;5073197;28;20163;-68
2024/02/09 04:24:54;;;;;;;14.75;13.00;;;;;;;7.33;100.00;94288.72;5069260;28;20040;-68
2024/02/09 04:27:20;;;;;;;9.30;8.18;;;;;;;7.37;100.00;94297.88;5070695;28;20123;-69
2024/02/09 04:29:46;;;;;;;12.48;9.57;;;;;;;7.30;100.00;94283.78;5070671;28;20052;-68
2024/02/09 04:32:11;;;;;;;11.85;9.88;;;;;;;7.35;100.00;94278.91;5058306;28;20572;-68
2024/02/09 04:34:40;;;;;;;11.50;10.40;;;;;;;7.28;100.00;94267.44;5057535;28;20054;-69
2024/02/09 04:37:05;;;;;;;14.05;12.65;;;;;;;7.25;100.00;94257.28;5070291;28;20382;-69
2024/02/09 04:39:30;;;;;;;9.02;8.20;;;;;;;7.26;100.00;94251.88;5056974;28;20079;-68
2024/02/09 04:41:56;;;;;;;10.95;7.53;;;;;;;7.30;100.00;94247.97;5063151;28;20045;-68
2024/02/09 04:44:23;;;;;;;8.40;7.15;;;;;;;7.28;100.00;94244.66;5061343;28;20391;-68
2024/02/09 04:46:49;;;;;;;8.50;7.25;;;;;;;7.34;100.00;94250.28;5066201;28;20580;-68
2024/02/09 04:49:15;;;;;;;8.38;7.38;;;;;;;7.29;100.00;94241.09;5071943;28;20959;-68
2024/02/09 04:51:44;;;;;;;14.15;8.38;;;;;;;7.35;100.00;94230.97;5065587;28;20056;-68
2024/02/09 04:54:10;;;;;;;10.20;9.20;;;;;;;7.19;100.00;94222.06;5059615;28;20474;-69
2024/02/09 04:56:36;;;;;;;10.27;9.38;;;;;;;7.15;100.00;94215.50;5076801;28;20025;-68
2024/02/09 04:59:10;;;;;;;9.95;8.68;;;;;;;7.17;100.00;94211.75;5059036;28;20036;-69
2024/02/09 05:01:40;;;;;;;10.70;9.57;;;;;;;7.15;100.00;94213.69;5057921;28;20029;-69
2024/02/09 05:04:10;;;;;;;13.82;9.77;;;;;;;7.15;100.00;94197.19;5058173;28;20037;-69
2024/02/09 05:06:36;;;;;;;11.85;9.93;;;;;;;7.11;100.00;94208.97;5057262;28;20405;-68
2024/02/09 05:09:05;;;;;;;12.38;9.60;;;;;;;7.30;100.00;94192.16;5064999;28;20036;-68
2024/02/09 05:11:33;;;;;;;9.90;8.60;;;;;;;7.22;100.00;94185.09;5058017;28;20036;-68
2024/02/09 05:13:58;;;;;;;8.82;7.93;;;;;;;7.15;100.00;94190.13;5058517;28;20037;-68
2024/02/09 05:16:24;;;;;;;10.27;8.50;;;;;;;7.22;100.00;94184.28;5059198;28;20027;-68
2024/02/09 05:18:50;;;;;;;9.27;7.55;;;;;;;7.34;100.00;94187.44;5067234;28;20052;-68
2024/02/09 05:21:17;;;;;;;10.40;9.05;;;;;;;7.25;100.00;94189.22;5062423;28;20068;-68
2024/02/09 05:23:42;;;;;;;10.18;8.60;;;;;;;7.17;100.00;94195.22;5056422;28;20363;-68
2024/02/09 05:26:09;;;;;;;10.20;8.82;;;;;;;7.09;100.00;94195.22;5061065;28;20094;-68
2024/02/09 05:28:38;;;;;;;10.30;9.13;;;;;;;7.17;100.00;94182.94;5058501;28;20032;-68
2024/02/09 05:31:04;;;;;;;10.50;9.48;;;;;;;7.12;100.00;94195.69;5066858;28;20107;-69
2024/02/09 05:33:34;;;;;;;11.13;9.35;;;;;;;7.09;100.00;94197.81;5060809;28;20047;-69
2024/02/09 05:36:01;;;;;;;11.77;9.13;;;;;;;7.11;100.00;94183.59;5056557;28;20032;-68
2024/02/09 05:38:27;;;;;;;9.35;8.45;;;;;;;7.20;100.00;94191.50;5061887;28;20409;-69
2024/02/09 05:40:53;;;;;;;12.32;9.63;;;;;;;7.15;100.00;94195.38;5063034;28;20029;-68
2024/02/09 05:43:18;;;;;;;11.57;9.45;;;;;;;7.15;100.00;94194.56;5060033;28;20043;-68
2024/02/09 05:45:48;;;;;;;10.00;9.10;;;;;;;7.09;100.00;94189.97;5057271;28;20036;-68
2024/02/09 05:48:14;;;;;;;10.77;9.02;;;;;;;7.02;100.00;94185.34;5061631;28;20037;-68
2024/02/09 05:50:39;;;;;;;12.10;10.18;;;;;;;6.98;100.00;94193.69;5055456;28;20048;-68
2024/02/09 05:53:05;;;;;;;55.65;44.38;;;;;;;6.98;100.00;94188.47;5055523;28;20458;-68
2024/02/09 05:55:30;;;;;;;25.08;19.80;;;;;;;7.07;100.00;94176.19;5057166;28;20021;-68
2024/02/09 05:57:55;;;;;;;8.82;7.90;;;;;;;7.07;100.00;94173.59;5064351;28;20118;-68
2024/02/09 06:00:22;;;;;;;11.75;10.15;;;;;;;7.00;100.00;94181.25;5055401;28;20055;-69
2024/02/09 06:02:51;;;;;;;11.65;10.35;;;;;;;7.00;100.00;94160.34;5059184;28;20037;-68
2024/02/09 06:05:16;;;;;;;11.32;10.13;;;;;;;6.99;100.00;94164.72;5060075;28;20025;-68
2024/02/09 06:07:42;;;;;;;11.10;10.10;;;;;;;7.06;100.00;94157.06;5060581;28;20442;-68
2024/02/09 06:10:09;;;;;;;10.18;9.18;;;;;;;7.04;100.00;94161.66;5068103;28;20136;-68
2024/02/09 06:12:35;;;;;;;11.32;10.23;;;;;;;7.03;100.00;94165.25;5058353;28;20037;-68
2024/02/09 06:15:01;;;;;;;12.98;11.68;;;;;;;7.05;100.00;94162.44;5063155;28;20032;-68
2024/02/09 06:17:28;;;;;;;14.93;11.25;;;;;;;7.15;100.00;94163.16;5060620;28;20051;-68
2024/02/09 06:19:54;;;;;;;12.02;8.95;;;;;;;7.14;100.00;94162.31;5079822;28;20452;-68
2024/02/09 06:22:19;;;;;;;9.80;8.80;;;;;;;7.05;100.00;94168.53;5063583;28;20032;-68
2024/02/09 06:24:44;;;;;;;11.88;10.07;;;;;;;7.04;100.00;94161.66;5067279;28;20025;-68
2024/02/09 06:27:11;;;;;;;12.32;9.63;;;;;;;7.01;100.00;94161.97;5061062;28;20071;-69
2024/02/09 06:29:38;;;;;;;10.48;9.45;;;;;;;7.00;100.00;94155.09;5060342;28;20032;-68
2024/02/09 06:32:04;;;;;;;12.38;11.10;;;;;;;6.96;100.00;94165.06;5060228;28;20024;-68
2024/02/09 06:34:30;;;;;;;12.38;11.07;;;;;;;6.94;100.00;94163.56;5067784;28;20538;-69
2024/02/09 06:36:55;;;;;;;11.57;10.48;;;;;;;6.95;100.00;94163.41;5066201;28;20077;-68
2024/02/09 06:39:22;;;;;;;16.08;11.68;;;;;;;6.97;100.00;94155.41;5060724;28;20020;-69
2024/02/09 06:41:48;;;;;;;13.73;12.48;;;;;;;6.96;100.00;94145.91;5064064;28;20179;-69
2024/02/09 06:44:14;;;;;;;13.75;12.40;;;;;;;7.00;100.00;94128.94;5055961;28;20028;-69
2024/02/09 06:46:39;;;;;;;14.65;13.35;;;;;;;6.94;100.00;94134.78;5069092;28;20462;-68
2024/02/09 06:49:06;;;;;;;16.13;14.52;;;;;;;6.95;100.00;94139.03;5071506;28;20404;-70
2024/02/09 06:51:32;;;;;;;13.43;12.15;;;;;;;6.97;100.00;94126.63;5069769;28;20044;-69
2024/02/09 06:53:58;;;;;;;14.30;12.40;;;;;;;6.96;100.00;94135.44;5059860;28;20510;-67
2024/02/09 06:56:23;;;;;;;18.20;15.80;;;;;;;6.94;100.00;94140.84;5058441;28;20033;-67
2024/02/09 06:58:51;;;;;;;20.30;17.77;;;;;;;6.98;100.00;94133.50;5057757;28;20070;-68
2024/02/09 07:01:18;;;;;;;18.38;16.50;;;;;;;6.96;100.00;94128.41;5065165;28;20056;-68
2024/02/09 07:03:44;;;;;;;15.68;13.98;;;;;;;6.92;100.00;94134.13;5057231;28;20036;-67
2024/02/09 07:06:10;;;;;;;14.43;11.05;;;;;;;6.90;100.00;94129.06;5057662;28;20500;-67
2024/02/09 07:08:42;;;;;;;12.27;11.07;;;;;;;6.97;100.00;94140.53;5063867;28;20534;-68
2024/02/09 07:11:11;;;;;;;13.95;11.32;;;;;;;6.93;100.00;94133.13;5066422;28;20024;-70
2024/02/09 07:13:37;;;;;;;13.40;11.20;;;;;;;6.94;100.00;94140.84;5054463;28;20654;-69
2024/02/09 07:16:03;;;;;;;20.45;18.33;;;;;;;6.98;100.00;94146.59;5055097;28;20489;-69
2024/02/09 07:18:30;;;;;;;16.55;15.00;;;;;;;6.95;100.00;94145.09;5058066;28;20029;-69
2024/02/09 07:20:56;;;;;;;14.50;13.13;;;;;;;6.93;100.00;94133.13;5063742;28;20119;-68
2024/02/09 07:23:21;;;;;;;16.08;14.40;;;;;;;6.94;100.00;94137.38;5062944;28;20056;-69
2024/02/09 07:25:46;;;;;;;16.92;15.13;;;;;;;6.96;100.00;94136.28;5068926;28;20044;-68
2024/02/09 07:28:13;;;;;;;14.88;11.88;;;;;;;6.98;100.00;94130.88;5063028;28;20031;-68
2024/02/09 07:30:39;;;;;;;19.45;17.48;;;;;;;6.95;100.00;94137.25;5059164;28;20036;-68
2024/02/09 07:33:04;;;;;;;18.95;15.60;;;;;;;7.01;100.00;94136.59;5053459;28;20032;-69
2024/02/09 07:35:30;;;;;;;31.58;26.45;;;;;;;7.03;100.00;94141.69;5062433;28;20078;-68
2024/02/09 07:37:57;;;;;;;15.35;13.75;;;;;;;6.95;100.00;94131.19;5060920;28;20106;-68
2024/02/09 07:40:23;;;;;;;17.42;15.63;;;;;;;6.91;100.00;94146.41;5053956;28;20024;-69
2024/02/09 07:42:48;;;;;;;24.27;21.30;;;;;;;6.87;100.00;94145.88;5060696;28;20053;-69
2024/02/09 07:45:16;;;;;;;16.80;14.90;;;;;;;6.87;100.00;94145.88;5065237;28;20025;-69
2024/02/09 07:47:44;;;;;;;30.60;27.38;;;;;;;6.88;100.00;94147.50;5063634;28;20028;-69
2024/02/09 07:50:13;;;;;;;25.10;22.55;;;;;;;6.91;100.00;94133.31;5061776;28;20116;-69
2024/02/09 07:52:38;;;;;;;53.33;45.55;;;;;;;6.92;100.00;94121.03;5072022;28;20091;-69
2024/02/09 07:55:07;;;;;;;19.45;17.55;;;;;;;6.94;100.00;94133.00;5066019;28;20121;-69
2024/02/09 07:57:34;;;;;;;14.77;11.10;;;;;;;6.90;100.00;94133.47;5068288;28;20032;-69
2024/02/09 07:59:59;;;;;;;12.20;10.85;;;;;;;6.99;100.00;94132.53;5068617;28;20032;-69
2024/02/09 08:02:28;;;;;;;11.73;10.55;;;;;;;7.09;100.00;94122.75;5063188;28;20032;-68
2024/02/09 08:04:53;;;;;;;10.35;9.27;;;;;;;7.06;100.00;94120.44;5056944;28;20810;-69
2024/02/09 08:07:20;;;;;;;28.63;26.02;;;;;;;7.04;100.00;94122.41;5071936;28;20126;-69
2024/02/09 08:09:46;;;;;;;27.42;24.77;;;;;;;7.03;100.00;94131.22;5080794;28;20056;-69
2024/02/09 08:12:12;;;;;;;17.98;16.45;;;;;;;7.07;100.00;94126.47;5063780;28;20032;-69
2024/02/09 08:14:38;;;;;;;15.00;13.70;;;;;;;7.05;100.00;94126.66;5073918;28;20032;-69
2024/02/09 08:17:05;;;;;;;11.77;10.57;;;;;;;7.12;100.00;94124.22;5062155;28;20508;-68
2024/02/09 08:19:32;;;;;;;13.70;12.50;;;;;;;7.17;100.00;94112.28;5060255;28;20089;-69
2024/02/09 08:21:58;;;;;;;16.35;14.75;;;;;;;7.28;100.00;94108.53;5069435;28;20033;-69
2024/02/09 08:24:24;;;;;;;19.10;17.23;;;;;;;7.23;100.00;94112.63;5074650;28;20060;-69
2024/02/09 08:26:49;;;;;;;16.00;14.02;;;;;;;7.17;100.00;94109.66;5059096;28;20481;-69
2024/02/09 08:29:15;;;;;;;15.68;14.18;;;;;;;7.25;100.00;94114.09;5066076;28;20025;-69
2024/02/09 08:31:40;;;;;;;14.60;13.20;;;;;;;7.26;100.00;94113.13;5062991;28;20409;-69
2024/02/09 08:34:05;;;;;;;16.25;12.65;;;;;;;7.34;100.00;94103.66;5038809;28;20405;-69
2024/02/09 08:36:31;;;;;;;13.25;12.05;;;;;;;7.38;100.00;94092.69;5060336;28;20021;-69
2024/02/09 08:38:56;;;;;;;14.60;13.07;;;;;;;7.39;100.00;94089.09;5067783;28;20036;-69
2024/02/09 08:41:22;;;;;;;14.35;12.88;;;;;;;7.46;100.00;94076.16;5064525;28;20037;-69
2024/02/09 08:43:47;;;;;;;13.10;11.90;;;;;;;7.50;100.00;94076.69;5058863;28;20088;-69
2024/02/09 08:46:13;;;;;;;18.73;17.13;;;;;;;7.53;100.00;94074.56;5065405;28;20021;-69
2024/02/09 08:48:38;;;;;;;16.17;14.68;;;;;;;7.56;100.00;94055.91;5064059;28;20036;-69
2024/02/09 08:51:04;;;;;;;11.32;10.20;;;;;;;7.57;100.00;94059.31;5053019;28;20043;-69
2024/02/09 08:53:30;;;;;;;12.40;11.27;;;;;;;7.58;100.00;94064.41;5062889;28;20032;-69
2024/02/09 08:55:56;;;;;;;12.68;10.73;;;;;;;7.64;100.00;94062.94;5073499;28;20032;-68
2024/02/09 08:58:21;;;;;;;13.45;11.32;;;;;;;7.78;100.00;94058.84;5072596;28;20016;-69
2024/02/09 09:00:47;;;;;;;16.77;15.02;;;;;;;7.72;100.00;94055.06;5063279;28;20075;-69
2024/02/09 09:03:13;;;;;;;23.70;19.33;;;;;;;7.72;100.00;94054.25;5062346;28;20032;-69
2024/02/09 09:05:40;;;;;;;12.20;10.82;;;;;;;7.76;100.00;94049.50;5064703;28;20035;-69
2024/02/09 09:08:07;;;;;;;12.50;11.30;;;;;;;7.82;100.00;94043.59;5061139;28;20028;-69
2024/02/09 09:10:34;;;;;;;12.07;10.05;;;;;;;7.89;100.00;94042.75;5055930;28;20025;-69
2024/02/09 09:12:59;;;;;;;16.33;13.10;;;;;;;7.97;100.00;94052.41;5057260;28;20453;-69
2024/02/09 09:15:25;;;;;;;13.60;12.20;;;;;;;8.00;100.00;94051.28;5070683;28;20031;-68
2024/02/09 09:17:51;;;;;;;11.85;10.65;;;;;;;8.00;100.00;94046.03;5074361;28;20032;-68
2024/02/09 09:20:16;;;;;;;10.90;9.32;;;;;;;8.04;100.00;94042.09;5072395;28;20074;-69
2024/02/09 09:22:41;;;;;;;12.65;11.35;;;;;;;8.16;100.00;94040.75;5055860;28;20033;-69
2024/02/09 09:25:08;;;;;;;9.57;8.77;;;;;;;8.13;100.00;94042.91;5068960;28;20537;-69
2024/02/09 09:27:34;;;;;;;9.23;8.18;;;;;;;8.16;100.00;94045.19;5069232;28;20034;-69
2024/02/09 09:30:02;;;;;;;9.43;8.38;;;;;;;8.18;100.00;94037.97;5069616;28;20052;-68
2024/02/09 09:32:27;;;;;;;9.57;8.60;;;;;;;8.24;100.00;94037.28;5066630;28;20059;-68
2024/02/09 09:34:52;;;;;;;13.45;10.15;;;;;;;8.20;100.00;94045.69;5070504;28;20048;-68
2024/02/09 09:37:18;;;;;;;14.13;12.57;;;;;;;8.19;100.00;94049.28;5057426;28;20039;-68
2024/02/09 09:39:43;;;;;;;10.95;9.70;;;;;;;8.17;100.00;94038.97;5057809;28;20081;-68
2024/02/09 09:42:09;;;;;;;9.18;8.27;;;;;;;8.12;100.00;94044.69;5068158;28;20564;-68
2024/02/09 09:44:35;;;;;;;9.10;8.20;;;;;;;8.24;100.00;94047.78;5065642;28;20052;-68
2024/02/09 09:47:01;;;;;;;11.77;8.80;;;;;;;8.23;100.00;94035.66;5061076;28;20062;-68
2024/02/09 09:49:27;;;;;;;8.32;7.53;;;;;;;8.17;100.00;94036.34;5072844;28;20051;-68
2024/02/09 09:52:00;;;;;;;9.13;8.23;;;;;;;8.21;100.00;94026.34;5055334;28;20091;-68
2024/02/09 09:54:29;;;;;;;8.30;7.50;;;;;;;8.42;100.00;94023.97;5059260;28;20032;-68
2024/02/09 09:56:55;;;;;;;15.30;11.18;;;;;;;8.30;100.00;94039.25;5065400;28;20401;-68
2024/02/09 09:59:21;;;;;;;8.93;6.88;;;;;;;8.30;100.00;94031.41;5069558;28;20101;-68
2024/02/09 10:01:48;;;;;;;5.65;5.05;;;;;;;8.29;100.00;94028.94;5064361;28;20032;-68
2024/02/09 10:04:14;;;;;;;12.00;8.52;;;;;;;8.18;100.00;94032.72;5056893;28;20037;-68
2024/02/09 10:06:40;;;;;;;9.80;8.75;;;;;;;8.19;100.00;94034.38;5067508;28;20023;-68
2024/02/09 10:09:08;;;;;;;9.43;7.13;;;;;;;8.24;100.00;94032.03;5063502;28;20086;-68
2024/02/09 10:11:35;;;;;;;7.47;6.38;;;;;;;8.39;100.00;94029.53;5057374;28;20064;-68
2024/02/09 10:14:01;;;;;;;11.73;8.23;;;;;;;8.37;100.00;94035.94;5055911;28;20066;-68
2024/02/09 10:16:26;;;;;;;9.18;7.07;;;;;;;8.34;100.00;94036.28;5066841;28;20037;-68
2024/02/09 10:18:52;;;;;;;12.52;10.10;;;;;;;8.28;100.00;94033.34;5061574;28;20464;-68
2024/02/09 10:21:18;;;;;;;8.02;5.85;;;;;;;8.31;100.00;94040.06;5063177;28;20619;-68
2024/02/09 10:23:46;;;;;;;4.90;4.50;;;;;;;8.31;100.00;94032.19;5066096;28;20032;-68
2024/02/09 10:26:11;;;;;;;7.15;6.55;;;;;;;8.43;100.00;94035.28;5055469;28;20025;-68
2024/02/09 10:28:38;;;;;;;7.47;6.68;;;;;;;8.47;100.00;94036.56;5062021;28;20093;-68
2024/02/09 10:31:04;;;;;;;7.65;6.75;;;;;;;8.57;100.00;94039.84;5067559;28;20020;-68
2024/02/09 10:33:30;;;;;;;11.27;8.25;;;;;;;8.54;100.00;94037.56;5068969;28;20548;-68
2024/02/09 10:35:56;;;;;;;13.82;11.75;;;;;;;8.51;100.00;94027.41;5067928;28;20039;-68
2024/02/09 10:38:27;;;;;;;11.60;10.35;;;;;;;8.62;100.00;94017.53;5056469;28;20021;-68
2024/02/09 10:40:55;;;;;;;68.63;42.65;;;;;;;8.60;100.00;94025.56;5068223;28;20449;-68
2024/02/09 10:43:23;;;;;;;174.45;92.75;;;;;;;8.64;100.00;94021.63;5077534;28;20040;-68
2024/02/09 10:45:50;;;;;;;58.28;39.58;;;;;;;8.72;100.00;94023.38;5057390;28;20047;-68
2024/02/09 10:48:20;;;;;;;102.10;80.47;;;;;;;8.70;100.00;94020.94;5068958;28;20028;-68
2024/02/09 10:50:46;;;;;;;18.35;16.52;;;;;;;8.65;100.00;94017.19;5067117;28;20029;-68
2024/02/09 10:53:22;;;;;;;17.05;15.32;;;;;;;8.64;100.00;94002.44;5056738;28;20023;-69
2024/02/09 10:55:54;;;;;;;9.40;7.65;;;;;;;8.67;100.00;94016.03;5057575;28;20013;-69
2024/02/09 10:58:20;;;;;;;8.70;7.90;;;;;;;8.68;100.00;94004.56;5062848;28;20023;-68
2024/02/09 11:00:46;;;;;;;7.07;6.38;;;;;;;8.70;100.00;94005.19;5076109;28;20586;-68
2024/02/09 11:03:11;;;;;;;9.45;7.07;;;;;;;8.79;100.00;93998.09;5072625;28;20111;-68
2024/02/09 11:05:38;;;;;;;11.75;9.45;;;;;;;8.84;100.00;94001.00;5066813;28;20370;-68
2024/02/09 11:08:04;;;;;;;8.52;7.68;;;;;;;9.00;100.00;94004.53;5064103;28;20435;-68
2024/02/09 11:10:31;;;;;;;7.18;6.47;;;;;;;8.96;100.00;94005.88;5050776;28;20013;-68
2024/02/09 11:12:57;;;;;;;8.15;7.45;;;;;;;8.96;100.00;93993.56;5053947;28;20108;-68
2024/02/09 11:15:23;;;;;;;9.55;8.65;;;;;;;8.78;100.00;93985.97;5058773;28;20540;-68
2024/02/09 11:17:49;;;;;;;19.52;17.08;;;;;;;8.62;100.00;93989.50;5061877;28;20083;-67
2024/02/09 11:20:16;;;;;;;14.32;11.25;;;;;;;8.56;100.00;93983.13;5068307;28;20023;-68
2024/02/09 11:22:47;;;;;;;10.07;9.18;;;;;;;8.72;100.00;93984.84;5068359;28;20643;-68
2024/02/09 11:25:16;;;;;;;10.35;9.30;;;;;;;8.65;100.00;93985.69;5057207;28;20088;-68
2024/02/09 11:27:51;;;;;;;11.85;9.98;;;;;;;8.68;100.00;93974.84;5066165;28;20012;-68
2024/02/09 11:30:20;;;;;;;14.90;13.38;;;;;;;8.73;100.00;93962.88;5067464;28;20105;-68
2024/02/09 11:32:48;;;;;;;14.40;13.05;;;;;;;8.64;100.00;93966.53;5061547;28;20025;-68
2024/02/09 11:35:15;;;;;;;10.75;9.68;;;;;;;8.63;100.00;93966.69;5058722;28;20021;-68
2024/02/09 11:37:47;;;;;;;10.52;9.55;;;;;;;8.66;100.00;93961.09;5064000;28;20100;-68
2024/02/09 11:40:15;;;;;;;10.98;9.90;;;;;;;8.72;100.00;93953.34;5072453;28;20024;-68
2024/02/09 11:42:41;;;;;;;9.05;8.20;;;;;;;8.69;100.00;93945.00;5068270;28;20119;-68
2024/02/09 11:45:09;;;;;;;11.88;9.30;;;;;;;8.72;100.00;93949.91;5065469;28;20533;-68
2024/02/09 11:47:37;;;;;;;10.57;9.57;;;;;;;8.70;100.00;93928.28;5061511;28;20135;-69
2024/02/09 11:50:02;;;;;;;11.10;9.98;;;;;;;8.69;100.00;93930.09;5058638;28;20017;-68
2024/02/09 11:52:28;;;;;;;11.70;10.27;;;;;;;8.82;100.00;93929.53;5058998;28;20032;-68
2024/02/09 11:54:53;;;;;;;13.68;12.27;;;;;;;8.88;100.00;93928.00;5064762;28;20086;-68
2024/02/09 11:57:19;;;;;;;12.10;10.85;;;;;;;8.91;100.00;93922.41;5068566;28;20025;-68
2024/02/09 11:59:45;;;;;;;13.18;11.77;;;;;;;8.86;100.00;93917.69;5068886;28;20048;-68
2024/02/09 12:02:10;;;;;;;11.77;10.52;;;;;;;8.75;100.00;93915.47;5072312;28;20025;-67
2024/02/09 12:04:36;;;;;;;11.90;10.80;;;;;;;8.80;100.00;93914.94;5046505;28;20032;-67
2024/02/09 12:07:01;;;;;;;10.75;9.65;;;;;;;8.84;100.00;93919.66;5055857;28;20049;-68
2024/02/09 12:09:29;;;;;;;11.13;9.15;;;;;;;8.79;100.00;93914.13;5060238;28;20425;-67
2024/02/09 12:11:55;;;;;;;8.43;7.53;;;;;;;8.81;100.00;93914.78;5060215;28;20111;-67
2024/02/09 12:14:20;;;;;;;9.02;8.23;;;;;;;8.88;100.00;93907.03;5060844;28;20052;-68
2024/02/09 12:16:46;;;;;;;10.70;9.40;;;;;;;8.94;100.00;93894.97;5060320;28;20027;-68
2024/02/09 12:19:12;;;;;;;12.68;10.68;;;;;;;8.99;100.00;93903.16;5054096;28;20020;-66
2024/02/09 12:21:39;;;;;;;12.13;10.88;;;;;;;9.02;100.00;93887.88;5071180;28;20035;-67
2024/02/09 12:24:04;;;;;;;11.88;9.35;;;;;;;9.12;100.00;93886.81;5061410;28;20020;-67
2024/02/09 12:26:32;;;;;;;11.65;10.55;;;;;;;9.01;100.00;93883.59;5062410;28;20036;-67
2024/02/09 12:28:58;;;;;;;13.63;12.32;;;;;;;8.99;100.00;93877.72;5059178;28;20582;-68
2024/02/09 12:31:25;;;;;;;14.55;11.52;;;;;;;9.00;100.00;93868.84;5067203;28;20039;-68
2024/02/09 12:33:51;;;;;;;12.15;10.68;;;;;;;8.99;100.00;93869.03;5067108;28;20058;-67
2024/02/09 12:36:21;;;;;;;14.48;12.57;;;;;;;8.96;100.00;93861.53;5064827;28;20040;-68
2024/02/09 12:38:54;;;;;;;13.43;12.05;;;;;;;8.95;100.00;93839.69;5053505;28;20541;-68
2024/02/09 12:41:20;;;;;;;17.38;15.25;;;;;;;8.90;100.00;93847.31;5065472;28;20441;-68
2024/02/09 12:43:56;;;;;;;20.13;18.23;;;;;;;8.91;100.00;93842.84;5055854;28;20045;-68
2024/02/09 12:46:24;;;;;;;17.08;15.48;;;;;;;8.92;100.00;93847.94;5056404;28;20104;-68
2024/02/09 12:48:49;;;;;;;13.68;12.38;;;;;;;8.93;100.00;93838.25;5072318;28;20055;-68
2024/02/09 12:51:15;;;;;;;11.73;10.60;;;;;;;9.03;100.00;93821.25;5066251;28;20028;-68
2024/02/09 12:53:40;;;;;;;11.88;10.13;;;;;;;9.00;100.00;93821.59;5067537;28;20056;-69
2024/02/09 12:56:06;;;;;;;11.70;10.60;;;;;;;8.99;100.00;93822.59;5066648;28;20024;-68
2024/02/09 12:58:31;;;;;;;14.55;13.07;;;;;;;9.05;100.00;93809.75;5065855;28;20036;-68
2024/02/09 13:00:56;;;;;;;10.93;9.93;;;;;;;9.10;100.00;93810.84;5066839;28;20032;-68
2024/02/09 13:03:22;;;;;;;12.57;10.80;;;;;;;9.03;100.00;93812.56;5064368;28;20032;-68
2024/02/09 13:05:48;;;;;;;11.52;10.43;;;;;;;9.16;100.00;93804.06;5064754;28;20055;-68